sensor_id;sensor_type;location;lat;lon;timestamp;pressure;altitude;pressure_sealevel;temperature;humidity
250;BME280;109;19.806;-70.704;2022-07-29T00:01:53;101594.44;;;25.42;64.35
250;BME280;109;19.806;-70.704;2022-07-29T00:04:20;101598.56;;;25.50;64.75
250;BME280;109;19.806;-70.704;2022-07-29T00:06:46;101601.06;;;25.54;64.40
250;BME280;109;19.806;-70.704;2022-07-29T00:09:13;101600.38;;;25.49;64.58
250;BME280;109;19.806;-70.704;2022-07-29T00:11:39;101600.19;;;25.54;65.07
250;BME280;109;19.806;-70.704;2022-07-29T00:14:06;101589.91;;;25.63;65.44
250;BME280;109;19.806;-70.704;2022-07-29T00:16:32;101597.72;;;25.69;65.03
250;BME280;109;19.806;-70.704;2022-07-29T00:18:58;101598.72;;;25.67;65.03
250;BME280;109;19.806;-70.704;2022-07-29T00:21:25;101594.75;;;25.55;66.13
250;BME280;109;19.806;-70.704;2022-07-29T00:23:51;101591.88;;;25.60;65.72
250;BME280;109;19.806;-70.704;2022-07-29T00:26:18;101604.25;;;25.62;65.26
250;BME280;109;19.806;-70.704;2022-07-29T00:28:44;101599.00;;;25.61;65.20
250;BME280;109;19.806;-70.704;2022-07-29T00:31:10;101599.66;;;25.66;65.23
250;BME280;109;19.806;-70.704;2022-07-29T00:33:37;101603.13;;;25.68;65.07
250;BME280;109;19.806;-70.704;2022-07-29T00:36:03;101604.47;;;25.78;65.49
250;BME280;109;19.806;-70.704;2022-07-29T00:38:30;101609.81;;;25.78;66.30
250;BME280;109;19.806;-70.704;2022-07-29T00:40:57;101619.75;;;25.76;64.88
250;BME280;109;19.806;-70.704;2022-07-29T00:43:23;101630.59;;;25.53;64.97
250;BME280;109;19.806;-70.704;2022-07-29T00:45:49;101630.03;;;25.46;65.42
250;BME280;109;19.806;-70.704;2022-07-29T00:48:16;101640.59;;;25.27;63.44
250;BME280;109;19.806;-70.704;2022-07-29T00:50:42;101636.25;;;25.25;63.78
250;BME280;109;19.806;-70.704;2022-07-29T00:53:10;101632.00;;;25.41;64.08
250;BME280;109;19.806;-70.704;2022-07-29T00:55:38;101650.72;;;25.42;64.80
250;BME280;109;19.806;-70.704;2022-07-29T00:58:04;101664.44;;;25.35;64.70
250;BME280;109;19.806;-70.704;2022-07-29T01:00:32;101658.81;;;25.19;65.49
250;BME280;109;19.806;-70.704;2022-07-29T01:02:58;101672.44;;;25.13;65.35
250;BME280;109;19.806;-70.704;2022-07-29T01:05:26;101675.94;;;25.15;65.74
250;BME280;109;19.806;-70.704;2022-07-29T01:07:55;101683.38;;;25.08;65.79
250;BME280;109;19.806;-70.704;2022-07-29T01:10:24;101681.63;;;25.07;65.47
250;BME280;109;19.806;-70.704;2022-07-29T01:12:53;101685.78;;;25.15;65.88
250;BME280;109;19.806;-70.704;2022-07-29T01:15:21;101679.88;;;25.06;66.30
250;BME280;109;19.806;-70.704;2022-07-29T01:29:16;101673.53;;;25.31;64.53
250;BME280;109;19.806;-70.704;2022-07-29T01:32:07;101669.59;;;25.39;64.00
250;BME280;109;19.806;-70.704;2022-07-29T01:39:56;101689.53;;;25.54;64.57
250;BME280;109;19.806;-70.704;2022-07-29T01:42:43;101691.38;;;25.52;64.13
250;BME280;109;19.806;-70.704;2022-07-29T01:51:16;101699.66;;;25.48;63.44
250;BME280;109;19.806;-70.704;2022-07-29T01:53:54;101701.25;;;25.52;63.24
250;BME280;109;19.806;-70.704;2022-07-29T01:56:29;101706.88;;;25.45;62.87
250;BME280;109;19.806;-70.704;2022-07-29T01:59:07;101711.91;;;25.53;63.13
250;BME280;109;19.806;-70.704;2022-07-29T02:01:36;101710.22;;;25.51;63.34
250;BME280;109;19.806;-70.704;2022-07-29T02:04:10;101716.38;;;25.53;63.01
250;BME280;109;19.806;-70.704;2022-07-29T02:06:39;101719.06;;;25.53;62.95
250;BME280;109;19.806;-70.704;2022-07-29T02:09:14;101724.19;;;25.59;63.32
250;BME280;109;19.806;-70.704;2022-07-29T02:11:53;101714.78;;;25.49;63.67
250;BME280;109;19.806;-70.704;2022-07-29T02:14:31;101726.88;;;25.37;63.73
250;BME280;109;19.806;-70.704;2022-07-29T02:17:05;101714.03;;;25.45;63.95
250;BME280;109;19.806;-70.704;2022-07-29T02:19:34;101724.28;;;25.35;64.17
250;BME280;109;19.806;-70.704;2022-07-29T02:22:10;101735.00;;;25.35;64.67
250;BME280;109;19.806;-70.704;2022-07-29T02:24:38;101735.00;;;25.35;64.47
250;BME280;109;19.806;-70.704;2022-07-29T02:27:20;101735.53;;;25.43;64.61
250;BME280;109;19.806;-70.704;2022-07-29T02:30:03;101736.06;;;25.31;64.46
250;BME280;109;19.806;-70.704;2022-07-29T02:32:45;101738.13;;;25.23;64.92
250;BME280;109;19.806;-70.704;2022-07-29T02:35:14;101738.13;;;25.23;65.04
250;BME280;109;19.806;-70.704;2022-07-29T02:37:55;101744.16;;;25.28;65.84
250;BME280;109;19.806;-70.704;2022-07-29T02:40:46;101747.41;;;25.15;65.67
250;BME280;109;19.806;-70.704;2022-07-29T02:43:29;101745.97;;;25.06;66.00
250;BME280;109;19.806;-70.704;2022-07-29T02:45:57;101735.31;;;25.04;66.69
250;BME280;109;19.806;-70.704;2022-07-29T02:48:43;101737.81;;;25.09;66.18
250;BME280;109;19.806;-70.704;2022-07-29T02:51:22;101731.59;;;25.08;66.62
250;BME280;109;19.806;-70.704;2022-07-29T02:54:07;101728.00;;;24.86;65.94
250;BME280;109;19.806;-70.704;2022-07-29T02:56:42;101730.00;;;24.81;66.65
250;BME280;109;19.806;-70.704;2022-07-29T02:59:27;101730.06;;;24.80;65.79
250;BME280;109;19.806;-70.704;2022-07-29T03:01:55;101733.13;;;24.69;66.03
250;BME280;109;19.806;-70.704;2022-07-29T03:04:39;101737.81;;;24.62;65.90
250;BME280;109;19.806;-70.704;2022-07-29T03:07:21;101736.94;;;24.62;65.66
250;BME280;109;19.806;-70.704;2022-07-29T03:09:49;101732.97;;;24.72;66.00
250;BME280;109;19.806;-70.704;2022-07-29T03:12:30;101740.22;;;24.70;64.95
250;BME280;109;19.806;-70.704;2022-07-29T03:14:58;101736.53;;;24.72;65.38
250;BME280;109;19.806;-70.704;2022-07-29T03:17:39;101734.88;;;24.70;65.43
250;BME280;109;19.806;-70.704;2022-07-29T03:20:07;101740.31;;;24.67;65.06
250;BME280;109;19.806;-70.704;2022-07-29T03:22:47;101757.38;;;24.64;64.74
250;BME280;109;19.806;-70.704;2022-07-29T03:25:15;101757.47;;;24.61;64.80
250;BME280;109;19.806;-70.704;2022-07-29T03:28:03;101755.06;;;24.55;64.84
250;BME280;109;19.806;-70.704;2022-07-29T03:30:36;101755.88;;;24.57;64.92
250;BME280;109;19.806;-70.704;2022-07-29T03:33:16;101752.13;;;24.61;64.43
250;BME280;109;19.806;-70.704;2022-07-29T03:35:43;101755.97;;;24.54;64.79
250;BME280;109;19.806;-70.704;2022-07-29T03:38:25;101753.25;;;24.56;64.39
250;BME280;109;19.806;-70.704;2022-07-29T03:41:05;101751.50;;;24.55;64.67
250;BME280;109;19.806;-70.704;2022-07-29T03:43:47;101754.34;;;24.50;64.46
250;BME280;109;19.806;-70.704;2022-07-29T03:46:16;101753.31;;;24.54;64.23
250;BME280;109;19.806;-70.704;2022-07-29T03:49:01;101741.88;;;24.49;64.18
250;BME280;109;19.806;-70.704;2022-07-29T03:51:36;101741.88;;;24.49;63.95
250;BME280;109;19.806;-70.704;2022-07-29T03:54:23;101737.56;;;24.45;63.99
250;BME280;109;19.806;-70.704;2022-07-29T03:56:59;101735.53;;;24.52;64.06
250;BME280;109;19.806;-70.704;2022-07-29T03:59:41;101739.16;;;24.51;63.82
250;BME280;109;19.806;-70.704;2022-07-29T04:02:21;101739.25;;;24.48;64.20
250;BME280;109;19.806;-70.704;2022-07-29T04:04:49;101736.97;;;24.37;64.31
250;BME280;109;19.806;-70.704;2022-07-29T04:07:28;101729.78;;;24.39;64.32
250;BME280;109;19.806;-70.704;2022-07-29T04:09:55;101743.53;;;24.53;64.37
250;BME280;109;19.806;-70.704;2022-07-29T04:12:35;101734.56;;;24.54;63.83
250;BME280;109;19.806;-70.704;2022-07-29T04:15:03;101729.28;;;24.53;63.35
250;BME280;109;19.806;-70.704;2022-07-29T04:17:44;101727.81;;;24.44;63.16
250;BME280;109;19.806;-70.704;2022-07-29T04:20:11;101726.03;;;24.45;63.19
250;BME280;109;19.806;-70.704;2022-07-29T04:22:50;101727.94;;;24.41;62.85
250;BME280;109;19.806;-70.704;2022-07-29T04:25:17;101736.16;;;24.35;63.15
250;BME280;109;19.806;-70.704;2022-07-29T04:28:04;101753.78;;;24.17;62.54
250;BME280;109;19.806;-70.704;2022-07-29T04:30:44;101750.28;;;23.89;63.39
250;BME280;109;19.806;-70.704;2022-07-29T04:33:24;101748.66;;;24.10;63.35
250;BME280;109;19.806;-70.704;2022-07-29T04:35:51;101729.69;;;24.17;62.67
250;BME280;109;19.806;-70.704;2022-07-29T04:38:31;101724.75;;;24.05;61.77
250;BME280;109;19.806;-70.704;2022-07-29T04:40:57;101718.53;;;24.04;61.69
250;BME280;109;19.806;-70.704;2022-07-29T04:43:37;101713.63;;;23.92;60.41
250;BME280;109;19.806;-70.704;2022-07-29T04:46:06;101710.31;;;23.84;60.05
250;BME280;109;19.806;-70.704;2022-07-29T04:48:46;101709.22;;;23.91;60.58
250;BME280;109;19.806;-70.704;2022-07-29T04:51:14;101697.00;;;24.08;61.42
250;BME280;109;19.806;-70.704;2022-07-29T04:53:54;101697.72;;;24.13;61.64
250;BME280;109;19.806;-70.704;2022-07-29T04:56:27;101695.94;;;24.13;62.09
250;BME280;109;19.806;-70.704;2022-07-29T04:59:06;101699.53;;;24.12;62.40
250;BME280;109;19.806;-70.704;2022-07-29T05:01:33;101699.34;;;24.18;62.30
250;BME280;109;19.806;-70.704;2022-07-29T05:04:12;101687.59;;;24.22;62.46
250;BME280;109;19.806;-70.704;2022-07-29T05:06:39;101688.16;;;24.32;62.13
250;BME280;109;19.806;-70.704;2022-07-29T05:09:18;101679.16;;;24.33;61.97
250;BME280;109;19.806;-70.704;2022-07-29T05:11:45;101680.34;;;24.26;61.38
250;BME280;109;19.806;-70.704;2022-07-29T05:14:24;101682.94;;;24.27;61.00
250;BME280;109;19.806;-70.704;2022-07-29T05:16:51;101675.13;;;24.21;60.29
250;BME280;109;19.806;-70.704;2022-07-29T05:19:30;101674.41;;;24.18;60.31
250;BME280;109;19.806;-70.704;2022-07-29T05:21:57;101661.22;;;24.12;60.70
250;BME280;109;19.806;-70.704;2022-07-29T05:24:37;101668.66;;;24.03;60.75
250;BME280;109;19.806;-70.704;2022-07-29T05:27:24;101662.59;;;23.98;60.84
250;BME280;109;19.806;-70.704;2022-07-29T05:30:11;101655.38;;;24.25;60.67
250;BME280;109;19.806;-70.704;2022-07-29T05:32:51;101659.13;;;24.20;61.06
250;BME280;109;19.806;-70.704;2022-07-29T05:35:17;101655.56;;;24.44;60.27
250;BME280;109;19.806;-70.704;2022-07-29T05:37:58;101656.69;;;24.60;60.58
250;BME280;109;19.806;-70.704;2022-07-29T05:40:25;101656.59;;;24.63;60.47
250;BME280;109;19.806;-70.704;2022-07-29T05:43:04;101649.47;;;24.62;60.35
250;BME280;109;19.806;-70.704;2022-07-29T05:45:31;101646.78;;;24.40;60.80
250;BME280;109;19.806;-70.704;2022-07-29T05:48:10;101658.34;;;24.41;60.92
250;BME280;109;19.806;-70.704;2022-07-29T05:50:37;101651.38;;;24.37;61.05
250;BME280;109;19.806;-70.704;2022-07-29T05:53:17;101647.75;;;24.38;60.58
250;BME280;109;19.806;-70.704;2022-07-29T05:55:44;101629.81;;;24.63;60.39
250;BME280;109;19.806;-70.704;2022-07-29T05:58:32;101626.91;;;24.69;60.02
250;BME280;109;19.806;-70.704;2022-07-29T06:01:05;101626.91;;;24.69;59.98
250;BME280;109;19.806;-70.704;2022-07-29T06:03:45;101631.06;;;24.55;60.82
250;BME280;109;19.806;-70.704;2022-07-29T06:06:12;101624.53;;;24.62;61.04
250;BME280;109;19.806;-70.704;2022-07-29T06:08:51;101629.94;;;24.60;60.87
250;BME280;109;19.806;-70.704;2022-07-29T06:11:18;101635.34;;;24.59;60.88
250;BME280;109;19.806;-70.704;2022-07-29T06:13:58;101631.13;;;24.53;61.32
250;BME280;109;19.806;-70.704;2022-07-29T06:16:25;101618.13;;;24.66;61.46
250;BME280;109;19.806;-70.704;2022-07-29T06:19:04;101625.38;;;24.62;61.46
250;BME280;109;19.806;-70.704;2022-07-29T06:21:31;101618.22;;;24.63;61.18
250;BME280;109;19.806;-70.704;2022-07-29T06:24:12;101614.19;;;24.53;61.50
250;BME280;109;19.806;-70.704;2022-07-29T06:26:40;101610.19;;;24.63;61.16
250;BME280;109;19.806;-70.704;2022-07-29T06:29:26;101609.34;;;24.62;61.01
250;BME280;109;19.806;-70.704;2022-07-29T06:32:06;101603.53;;;24.73;60.88
250;BME280;109;19.806;-70.704;2022-07-29T06:34:45;101590.13;;;24.74;60.83
250;BME280;109;19.806;-70.704;2022-07-29T06:37:25;101603.88;;;24.65;60.16
250;BME280;109;19.806;-70.704;2022-07-29T06:39:52;101601.13;;;24.67;60.08
250;BME280;109;19.806;-70.704;2022-07-29T06:42:50;101604.44;;;24.73;60.05
250;BME280;109;19.806;-70.704;2022-07-29T06:45:17;101599.63;;;24.83;59.90
250;BME280;109;19.806;-70.704;2022-07-29T06:47:56;101603.06;;;24.85;60.10
250;BME280;109;19.806;-70.704;2022-07-29T06:50:23;101599.47;;;24.86;59.72
250;BME280;109;19.806;-70.704;2022-07-29T06:53:03;101589.50;;;24.90;59.71
250;BME280;109;19.806;-70.704;2022-07-29T06:55:29;101596.94;;;24.83;59.95
250;BME280;109;19.806;-70.704;2022-07-29T06:58:10;101595.13;;;24.84;59.85
250;BME280;109;19.806;-70.704;2022-07-29T07:00:45;101588.22;;;24.78;59.84
250;BME280;109;19.806;-70.704;2022-07-29T07:03:25;101580.28;;;24.75;59.97
250;BME280;109;19.806;-70.704;2022-07-29T07:05:53;101582.09;;;24.74;60.03
250;BME280;109;19.806;-70.704;2022-07-29T07:08:32;101590.81;;;24.80;60.09
250;BME280;109;19.806;-70.704;2022-07-29T07:10:59;101584.53;;;24.81;60.28
250;BME280;109;19.806;-70.704;2022-07-29T07:13:39;101595.38;;;24.78;60.28
250;BME280;109;19.806;-70.704;2022-07-29T07:16:06;101586.53;;;24.75;60.45
250;BME280;109;19.806;-70.704;2022-07-29T07:18:45;101573.22;;;24.72;60.63
250;BME280;109;19.806;-70.704;2022-07-29T07:21:12;101575.91;;;24.72;60.63
250;BME280;109;19.806;-70.704;2022-07-29T07:23:52;101573.66;;;24.40;61.25
250;BME280;109;19.806;-70.704;2022-07-29T07:26:19;101571.69;;;24.67;60.81
250;BME280;109;19.806;-70.704;2022-07-29T07:29:06;101565.28;;;24.71;60.70
250;BME280;109;19.806;-70.704;2022-07-29T07:31:39;101573.13;;;24.75;60.68
250;BME280;109;19.806;-70.704;2022-07-29T07:34:26;101573.06;;;24.77;60.93
250;BME280;109;19.806;-70.704;2022-07-29T07:36:59;101568.94;;;24.68;60.98
250;BME280;109;19.806;-70.704;2022-07-29T07:39:55;101577.09;;;24.65;61.08
250;BME280;109;19.806;-70.704;2022-07-29T07:42:34;101570.00;;;24.64;61.16
250;BME280;109;19.806;-70.704;2022-07-29T07:45:01;101578.97;;;24.63;61.27
250;BME280;109;19.806;-70.704;2022-07-29T07:47:44;101569.72;;;24.49;61.84
250;BME280;109;19.806;-70.704;2022-07-29T07:50:11;101573.97;;;24.54;61.70
250;BME280;109;19.806;-70.704;2022-07-29T07:52:53;101569.13;;;24.64;61.78
250;BME280;109;19.806;-70.704;2022-07-29T07:55:29;101567.31;;;24.64;62.20
250;BME280;109;19.806;-70.704;2022-07-29T07:58:10;101566.63;;;24.59;61.90
250;BME280;109;19.806;-70.704;2022-07-29T08:00:37;101575.84;;;24.52;62.54
250;BME280;109;19.806;-70.704;2022-07-29T08:03:25;101572.69;;;24.64;62.06
250;BME280;109;19.806;-70.704;2022-07-29T08:05:58;101556.44;;;24.69;62.51
250;BME280;109;19.806;-70.704;2022-07-29T08:08:38;101564.53;;;24.67;62.60
250;BME280;109;19.806;-70.704;2022-07-29T08:11:05;101568.03;;;24.69;62.85
250;BME280;109;19.806;-70.704;2022-07-29T08:13:44;101563.44;;;24.71;63.67
250;BME280;109;19.806;-70.704;2022-07-29T08:16:12;101563.72;;;24.65;64.02
250;BME280;109;19.806;-70.704;2022-07-29T08:18:54;101566.28;;;24.68;64.18
250;BME280;109;19.806;-70.704;2022-07-29T08:21:23;101560.50;;;24.57;64.08
250;BME280;109;19.806;-70.704;2022-07-29T08:24:04;101566.88;;;24.53;63.76
250;BME280;109;19.806;-70.704;2022-07-29T08:26:55;101558.03;;;24.51;64.03
250;BME280;109;19.806;-70.704;2022-07-29T08:29:42;101557.34;;;24.46;63.81
250;BME280;109;19.806;-70.704;2022-07-29T08:32:22;101559.16;;;24.46;63.90
250;BME280;109;19.806;-70.704;2022-07-29T08:34:48;101564.50;;;24.46;64.02
250;BME280;109;19.806;-70.704;2022-07-29T08:37:30;101569.47;;;24.33;64.13
250;BME280;109;19.806;-70.704;2022-07-29T08:39:57;101572.13;;;24.33;64.26
250;BME280;109;19.806;-70.704;2022-07-29T08:42:38;101575.41;;;24.41;64.15
250;BME280;109;19.806;-70.704;2022-07-29T08:45:05;101570.94;;;24.42;63.88
250;BME280;109;19.806;-70.704;2022-07-29T08:47:45;101574.09;;;24.29;63.72
250;BME280;109;19.806;-70.704;2022-07-29T08:50:12;101576.16;;;24.21;64.00
250;BME280;109;19.806;-70.704;2022-07-29T08:52:52;101584.94;;;24.25;63.94
250;BME280;109;19.806;-70.704;2022-07-29T08:55:18;101574.09;;;24.29;63.62
250;BME280;109;19.806;-70.704;2022-07-29T08:57:58;101586.00;;;24.21;63.43
250;BME280;109;19.806;-70.704;2022-07-29T09:00:33;101596.47;;;24.27;63.58
250;BME280;109;19.806;-70.704;2022-07-29T09:03:20;101594.56;;;24.30;63.57
250;BME280;109;19.806;-70.704;2022-07-29T09:05:54;101588.13;;;24.34;63.33
250;BME280;109;19.806;-70.704;2022-07-29T09:08:35;101587.63;;;24.25;63.23
250;BME280;109;19.806;-70.704;2022-07-29T09:11:02;101581.91;;;24.34;63.61
250;BME280;109;19.806;-70.704;2022-07-29T09:13:44;101588.28;;;24.31;63.34
250;BME280;109;19.806;-70.704;2022-07-29T09:16:10;101585.50;;;24.33;63.33
250;BME280;109;19.806;-70.704;2022-07-29T09:18:50;101587.16;;;24.37;63.87
250;BME280;109;19.806;-70.704;2022-07-29T09:21:17;101598.03;;;24.32;63.51
250;BME280;109;19.806;-70.704;2022-07-29T09:24:17;101601.44;;;24.13;63.43
250;BME280;109;19.806;-70.704;2022-07-29T09:26:45;101602.63;;;24.05;64.02
250;BME280;109;19.806;-70.704;2022-07-29T09:29:31;101602.34;;;23.88;64.53
250;BME280;109;19.806;-70.704;2022-07-29T09:32:08;101611.31;;;24.11;63.98
250;BME280;109;19.806;-70.704;2022-07-29T09:34:47;101620.81;;;24.19;64.15
250;BME280;109;19.806;-70.704;2022-07-29T09:37:29;101614.91;;;24.10;63.79
250;BME280;109;19.806;-70.704;2022-07-29T09:39:55;101617.69;;;24.06;63.98
250;BME280;109;19.806;-70.704;2022-07-29T09:42:37;101610.50;;;24.09;64.21
250;BME280;109;19.806;-70.704;2022-07-29T09:45:03;101611.72;;;24.00;64.70
250;BME280;109;19.806;-70.704;2022-07-29T09:47:46;101615.13;;;24.05;64.57
250;BME280;109;19.806;-70.704;2022-07-29T09:50:39;101622.31;;;24.03;64.35
250;BME280;109;19.806;-70.704;2022-07-29T09:53:31;101612.03;;;23.92;64.62
250;BME280;109;19.806;-70.704;2022-07-29T09:56:05;101606.44;;;23.98;64.52
250;BME280;109;19.806;-70.704;2022-07-29T09:58:46;101611.44;;;24.08;64.22
250;BME280;109;19.806;-70.704;2022-07-29T10:01:13;101614.81;;;24.13;64.33
250;BME280;109;19.806;-70.704;2022-07-29T10:03:52;101615.69;;;24.13;63.81
250;BME280;109;19.806;-70.704;2022-07-29T10:06:19;101610.34;;;24.13;63.83
250;BME280;109;19.806;-70.704;2022-07-29T10:09:11;101612.81;;;23.94;64.02
250;BME280;109;19.806;-70.704;2022-07-29T10:12:13;101611.44;;;24.08;63.96
250;BME280;109;19.806;-70.704;2022-07-29T10:14:54;101602.81;;;23.99;64.21
250;BME280;109;19.806;-70.704;2022-07-29T10:17:33;101607.88;;;23.84;64.21
250;BME280;109;19.806;-70.704;2022-07-29T10:20:00;101618.03;;;23.74;64.73
250;BME280;109;19.806;-70.704;2022-07-29T10:22:41;101620.63;;;24.00;64.43
250;BME280;109;19.806;-70.704;2022-07-29T10:25:08;101624.94;;;24.04;64.12
250;BME280;109;19.806;-70.704;2022-07-29T10:31:38;101625.03;;;24.01;64.15
250;BME280;109;19.806;-70.704;2022-07-29T10:34:36;101620.53;;;23.79;64.27
250;BME280;109;19.806;-70.704;2022-07-29T10:43:40;101627.00;;;23.96;64.95
250;BME280;109;19.806;-70.704;2022-07-29T10:46:14;101618.72;;;24.04;64.75
250;BME280;109;19.806;-70.704;2022-07-29T10:49:18;101623.75;;;24.12;64.81
250;BME280;109;19.806;-70.704;2022-07-29T10:52:08;101636.25;;;24.11;65.08
250;BME280;109;19.806;-70.704;2022-07-29T10:54:46;101643.66;;;24.04;64.90
250;BME280;109;19.806;-70.704;2022-07-29T10:57:29;101650.41;;;24.15;64.95
250;BME280;109;19.806;-70.704;2022-07-29T11:02:46;101650.19;;;24.21;64.10
250;BME280;109;19.806;-70.704;2022-07-29T11:05:24;101653.41;;;24.30;64.15
250;BME280;109;19.806;-70.704;2022-07-29T11:10:46;101663.47;;;24.70;63.35
250;BME280;109;19.806;-70.704;2022-07-29T11:17:19;101650.41;;;24.85;63.16
250;BME280;109;19.806;-70.704;2022-07-29T11:23:26;101657.88;;;25.20;61.66
250;BME280;109;19.806;-70.704;2022-07-29T11:31:42;101665.97;;;25.40;60.31
250;BME280;109;19.806;-70.704;2022-07-29T11:34:31;101665.03;;;25.41;60.76
250;BME280;109;19.806;-70.704;2022-07-29T11:45:16;101662.91;;;25.50;61.10
250;BME280;109;19.806;-70.704;2022-07-29T11:47:52;101678.84;;;25.32;61.52
250;BME280;109;19.806;-70.704;2022-07-29T11:50:41;101684.25;;;25.09;61.97
250;BME280;109;19.806;-70.704;2022-07-29T11:53:14;101678.31;;;25.23;62.51
250;BME280;109;19.806;-70.704;2022-07-29T11:55:55;101686.78;;;25.12;62.60
250;BME280;109;19.806;-70.704;2022-07-29T11:58:22;101695.47;;;25.19;62.44
250;BME280;109;19.806;-70.704;2022-07-29T12:01:02;101701.81;;;25.16;63.05
250;BME280;109;19.806;-70.704;2022-07-29T12:03:33;101694.72;;;25.37;62.53
250;BME280;109;19.806;-70.704;2022-07-29T12:06:15;101694.06;;;25.52;62.51
250;BME280;109;19.806;-70.704;2022-07-29T12:08:55;101701.66;;;25.85;62.78
250;BME280;109;19.806;-70.704;2022-07-29T12:11:21;101700.25;;;26.15;62.55
250;BME280;109;19.806;-70.704;2022-07-29T12:14:00;101704.94;;;26.11;61.33
250;BME280;109;19.806;-70.704;2022-07-29T12:16:35;101711.31;;;26.28;61.73
250;BME280;109;19.806;-70.704;2022-07-29T12:19:16;101708.81;;;26.04;61.49
250;BME280;109;19.806;-70.704;2022-07-29T12:21:48;101706.44;;;26.17;61.52
250;BME280;109;19.806;-70.704;2022-07-29T12:24:43;101709.94;;;26.39;60.58
250;BME280;109;19.806;-70.704;2022-07-29T12:27:17;101705.47;;;26.59;60.28
250;BME280;109;19.806;-70.704;2022-07-29T12:30:10;101705.81;;;26.51;59.74
250;BME280;109;19.806;-70.704;2022-07-29T12:32:50;101704.09;;;26.50;59.50
250;BME280;109;19.806;-70.704;2022-07-29T12:35:31;101712.47;;;26.42;59.25
250;BME280;109;19.806;-70.704;2022-07-29T12:38:04;101712.97;;;25.91;60.82
250;BME280;109;19.806;-70.704;2022-07-29T12:40:45;101708.81;;;25.84;61.04
250;BME280;109;19.806;-70.704;2022-07-29T12:43:17;101712.69;;;26.17;60.81
250;BME280;109;19.806;-70.704;2022-07-29T12:46:12;101701.09;;;26.56;61.09
250;BME280;109;19.806;-70.704;2022-07-29T12:48:54;101706.75;;;26.88;60.49
250;BME280;109;19.806;-70.704;2022-07-29T12:51:35;101699.94;;;26.62;59.69
250;BME280;109;19.806;-70.704;2022-07-29T12:54:15;101698.56;;;26.72;60.45
250;BME280;109;19.806;-70.704;2022-07-29T12:56:44;101691.03;;;26.99;60.29
250;BME280;109;19.806;-70.704;2022-07-29T12:59:23;101700.16;;;26.95;60.25
250;BME280;109;19.806;-70.704;2022-07-29T13:01:52;101708.44;;;26.90;60.68
250;BME280;109;19.806;-70.704;2022-07-29T13:04:33;101712.78;;;27.11;60.32
250;BME280;109;19.806;-70.704;2022-07-29T13:07:13;101714.47;;;27.14;60.16
250;BME280;109;19.806;-70.704;2022-07-29T13:09:53;101718.84;;;26.98;60.08
250;BME280;109;19.806;-70.704;2022-07-29T13:12:20;101716.91;;;26.81;60.51
250;BME280;109;19.806;-70.704;2022-07-29T13:14:59;101721.84;;;26.92;60.46
250;BME280;109;19.806;-70.704;2022-07-29T13:17:26;101725.34;;;27.11;60.19
250;BME280;109;19.806;-70.704;2022-07-29T13:20:09;101725.06;;;27.17;59.94
250;BME280;109;19.806;-70.704;2022-07-29T13:22:52;101725.09;;;27.34;59.43
250;BME280;109;19.806;-70.704;2022-07-29T13:25:33;101716.91;;;27.18;60.38
250;BME280;109;19.806;-70.704;2022-07-29T13:28:00;101723.13;;;27.38;59.18
250;BME280;109;19.806;-70.704;2022-07-29T13:30:46;101719.69;;;27.70;59.36
250;BME280;109;19.806;-70.704;2022-07-29T13:33:25;101716.59;;;27.43;58.43
250;BME280;109;19.806;-70.704;2022-07-29T13:36:06;101720.31;;;27.58;58.69
250;BME280;109;19.806;-70.704;2022-07-29T13:38:32;101716.41;;;27.65;58.83
250;BME280;109;19.806;-70.704;2022-07-29T13:41:13;101715.41;;;27.83;58.95
250;BME280;109;19.806;-70.704;2022-07-29T13:43:39;101716.94;;;27.89;58.34
250;BME280;109;19.806;-70.704;2022-07-29T13:46:18;101715.69;;;27.96;58.29
250;BME280;109;19.806;-70.704;2022-07-29T13:48:45;101724.97;;;28.08;57.50
250;BME280;109;19.806;-70.704;2022-07-29T13:51:25;101718.06;;;28.02;56.92
250;BME280;109;19.806;-70.704;2022-07-29T13:53:53;101723.28;;;28.05;56.60
250;BME280;109;19.806;-70.704;2022-07-29T13:56:20;101725.72;;;28.10;55.99
250;BME280;109;19.806;-70.704;2022-07-29T13:58:46;101718.53;;;28.10;55.51
250;BME280;109;19.806;-70.704;2022-07-29T14:01:13;101713.69;;;27.65;55.83
250;BME280;109;19.806;-70.704;2022-07-29T14:03:39;101718.63;;;27.38;56.12
250;BME280;109;19.806;-70.704;2022-07-29T14:06:07;101727.06;;;27.67;56.17
250;BME280;109;19.806;-70.704;2022-07-29T14:08:33;101721.22;;;27.93;56.33
250;BME280;109;19.806;-70.704;2022-07-29T14:11:00;101720.13;;;27.97;55.68
250;BME280;109;19.806;-70.704;2022-07-29T14:13:26;101718.44;;;27.95;55.84
250;BME280;109;19.806;-70.704;2022-07-29T14:15:53;101723.53;;;28.01;56.15
250;BME280;109;19.806;-70.704;2022-07-29T14:18:19;101719.06;;;28.17;56.30
250;BME280;109;19.806;-70.704;2022-07-29T14:20:46;101722.78;;;28.32;55.71
250;BME280;109;19.806;-70.704;2022-07-29T14:23:12;101725.91;;;28.40;56.06
250;BME280;109;19.806;-70.704;2022-07-29T14:25:39;101721.56;;;28.37;55.58
250;BME280;109;19.806;-70.704;2022-07-29T14:28:05;101717.66;;;28.60;55.09
250;BME280;109;19.806;-70.704;2022-07-29T14:30:32;101714.19;;;28.58;54.77
250;BME280;109;19.806;-70.704;2022-07-29T14:32:58;101716.59;;;28.63;55.76
250;BME280;109;19.806;-70.704;2022-07-29T14:35:25;101715.13;;;28.57;55.06
250;BME280;109;19.806;-70.704;2022-07-29T14:37:51;101718.16;;;28.67;55.15
250;BME280;109;19.806;-70.704;2022-07-29T14:40:17;101719.56;;;28.74;55.21
250;BME280;109;19.806;-70.704;2022-07-29T14:42:44;101718.19;;;28.82;54.97
250;BME280;109;19.806;-70.704;2022-07-29T14:45:10;101715.22;;;28.71;56.19
250;BME280;109;19.806;-70.704;2022-07-29T14:47:38;101711.38;;;28.75;55.07
250;BME280;109;19.806;-70.704;2022-07-29T14:50:05;101713.22;;;28.90;55.62
250;BME280;109;19.806;-70.704;2022-07-29T14:52:32;101712.72;;;28.84;55.33